Time;durP1;ratioP1;P1;durP2;ratioP2;P2;SDS_P1;SDS_P2;PMS_P1;PMS_P2;Temp;Humidity;BMP_temperature;BMP_pressure;BME280_temperature;BME280_humidity;BME280_pressure;Samples;Min_cycle;Max_cycle;Signal;HPM_P1;HPM_P2
2022/11/22 00:01:33;;;;;;;7.20;4.97;;;10.50;57.30;;;;;;5095562;27;20545;-87
2022/11/22 00:04:00;;;;;;;8.87;4.83;;;10.50;57.30;;;;;;5114922;27;20443;-86
2022/11/22 00:06:29;;;;;;;7.63;4.27;;;10.50;57.30;;;;;;5097310;27;20467;-87
2022/11/22 00:08:56;;;;;;;11.10;5.00;;;10.50;57.40;;;;;;5113229;27;21124;-89
2022/11/22 00:11:23;;;;;;;8.00;4.83;;;10.50;57.30;;;;;;5087276;27;20442;-88
2022/11/22 00:13:50;;;;;;;8.57;5.50;;;10.50;57.20;;;;;;5094493;27;20450;-88
2022/11/22 00:16:17;;;;;;;11.33;6.80;;;10.50;56.90;;;;;;5103377;27;20910;-86
2022/11/22 00:18:44;;;;;;;8.30;5.73;;;10.50;56.80;;;;;;5086758;27;20462;-89
2022/11/22 00:21:11;;;;;;;13.07;6.00;;;10.50;57.00;;;;;;5089124;27;20447;-86
2022/11/22 00:23:40;;;;;;;8.20;5.37;;;10.60;57.20;;;;;;5079450;27;20458;-86
2022/11/22 00:26:10;;;;;;;9.57;6.93;;;10.60;57.10;;;;;;5093329;27;21044;-86
2022/11/22 00:28:38;;;;;;;10.67;7.03;;;10.50;57.30;;;;;;5082073;27;21005;-86
2022/11/22 00:31:05;;;;;;;8.93;6.87;;;10.50;57.50;;;;;;5097005;27;20446;-88
2022/11/22 00:33:33;;;;;;;10.50;7.00;;;10.50;57.60;;;;;;5087661;27;21000;-87
2022/11/22 00:36:00;;;;;;;12.30;6.73;;;10.50;57.80;;;;;;5094927;27;20537;-87
2022/11/22 00:38:27;;;;;;;13.57;8.40;;;10.50;57.70;;;;;;5097322;27;21046;-87
2022/11/22 00:40:55;;;;;;;9.23;6.63;;;10.50;57.50;;;;;;5094771;27;20447;-86
2022/11/22 00:43:22;;;;;;;12.40;7.23;;;10.50;57.50;;;;;;5082389;28;20453;-88
2022/11/22 00:45:49;;;;;;;14.93;6.97;;;10.50;57.60;;;;;;5092650;27;20469;-87
2022/11/22 00:48:16;;;;;;;9.00;5.70;;;10.50;57.40;;;;;;5080512;27;21129;-87
2022/11/22 00:50:43;;;;;;;8.90;6.50;;;10.50;56.80;;;;;;5077665;27;20508;-87
2022/11/22 00:53:10;;;;;;;7.93;5.10;;;10.30;57.30;;;;;;5098458;27;20450;-89
2022/11/22 00:55:37;;;;;;;9.47;5.30;;;10.40;57.70;;;;;;5087688;27;20454;-88
2022/11/22 00:58:06;;;;;;;11.20;7.10;;;10.40;58.10;;;;;;5068826;27;20518;-88
2022/11/22 01:00:33;;;;;;;16.73;7.57;;;10.50;58.00;;;;;;5064317;27;20541;-87
2022/11/22 01:03:00;;;;;;;12.53;6.97;;;10.50;57.90;;;;;;5094698;27;20453;-90
2022/11/22 01:05:27;;;;;;;10.80;6.70;;;10.60;57.90;;;;;;5077285;28;20477;-88
2022/11/22 01:07:54;;;;;;;11.27;5.97;;;10.60;57.70;;;;;;5076960;27;20790;-86
2022/11/22 01:10:21;;;;;;;13.10;6.67;;;10.60;57.80;;;;;;5064458;28;20836;-87
2022/11/22 01:12:48;;;;;;;8.07;6.17;;;10.60;57.70;;;;;;5086253;27;20926;-87
2022/11/22 01:15:16;;;;;;;12.13;7.50;;;10.60;57.60;;;;;;5087326;27;20530;-88
2022/11/22 01:17:43;;;;;;;12.53;7.27;;;10.60;57.70;;;;;;5095960;27;20469;-87
2022/11/22 01:20:11;;;;;;;16.57;6.77;;;10.60;57.90;;;;;;5113272;27;20450;-87
2022/11/22 01:22:38;;;;;;;11.00;7.03;;;10.60;57.90;;;;;;5081148;27;20442;-87
2022/11/22 01:25:07;;;;;;;11.47;6.63;;;10.60;57.70;;;;;;5087141;27;20526;-89
2022/11/22 01:27:34;;;;;;;15.57;7.40;;;10.50;58.10;;;;;;5093844;27;20477;-88
2022/11/22 01:30:01;;;;;;;10.80;6.90;;;10.40;58.10;;;;;;5094051;27;21071;-88
2022/11/22 01:32:29;;;;;;;10.07;7.30;;;10.50;58.10;;;;;;5098142;27;20452;-87
2022/11/22 01:34:56;;;;;;;16.03;6.77;;;10.40;58.10;;;;;;5094749;27;20494;-87
2022/11/22 01:37:23;;;;;;;13.90;6.93;;;10.40;57.90;;;;;;5113546;27;20466;-87
2022/11/22 01:39:50;;;;;;;9.70;6.53;;;10.40;58.30;;;;;;5078615;27;20446;-88
2022/11/22 01:42:17;;;;;;;12.60;6.70;;;10.50;58.60;;;;;;5094440;27;20442;-87
2022/11/22 01:44:44;;;;;;;12.70;6.93;;;10.50;58.60;;;;;;5113666;27;20451;-88
2022/11/22 01:47:14;;;;;;;13.40;6.60;;;10.50;58.80;;;;;;5100668;27;20476;-87
2022/11/22 01:49:46;;;;;;;12.43;7.03;;;10.50;58.90;;;;;;5116196;27;20465;-88
2022/11/22 01:52:16;;;;;;;11.47;6.97;;;10.40;58.80;;;;;;5109373;27;20445;-86
2022/11/22 01:54:45;;;;;;;10.37;7.33;;;10.30;59.10;;;;;;5084595;27;20530;-87
2022/11/22 01:57:17;;;;;;;13.63;7.73;;;10.20;59.50;;;;;;5101028;27;20481;-87
2022/11/22 01:59:49;;;;;;;13.30;7.87;;;10.40;59.30;;;;;;5099064;27;20539;-88
2022/11/22 02:02:16;;;;;;;12.50;6.20;;;10.40;58.90;;;;;;5118922;27;20961;-87
2022/11/22 02:04:45;;;;;;;7.57;5.57;;;10.40;58.60;;;;;;5091464;27;20442;-87
2022/11/22 02:07:19;;;;;;;11.93;7.43;;;10.30;58.90;;;;;;5089579;27;20480;-87
2022/11/22 02:09:48;;;;;;;10.53;5.77;;;10.40;58.90;;;;;;5117658;27;21281;-87
2022/11/22 02:12:17;;;;;;;9.20;5.97;;;10.40;58.70;;;;;;5100620;27;20447;-87
2022/11/22 02:14:44;;;;;;;10.03;5.50;;;10.40;59.00;;;;;;5074595;27;20450;-87
2022/11/22 02:17:11;;;;;;;8.90;6.40;;;10.50;59.60;;;;;;5082363;27;20561;-86
2022/11/22 02:19:42;;;;;;;9.50;6.27;;;10.30;59.70;;;;;;5116340;27;20445;-88
2022/11/22 02:22:21;;;;;;;9.73;5.90;;;10.30;59.90;;;;;;5085678;27;20438;-87
2022/11/22 02:24:53;;;;;;;6.73;5.03;;;10.40;59.90;;;;;;5121719;27;20521;-87
2022/11/22 02:27:22;;;;;;;13.30;6.77;;;10.40;59.60;;;;;;5099094;27;20891;-87
2022/11/22 02:29:49;;;;;;;8.97;6.00;;;10.50;59.50;;;;;;5085395;27;20474;-87
2022/11/22 02:32:16;;;;;;;9.90;6.43;;;10.60;59.60;;;;;;5085434;27;20780;-87
2022/11/22 02:34:44;;;;;;;15.57;6.20;;;10.60;59.60;;;;;;5083657;27;20534;-88
2022/11/22 02:37:14;;;;;;;11.63;6.90;;;10.60;59.60;;;;;;5115436;27;20560;-89
2022/11/22 02:39:43;;;;;;;10.93;7.17;;;10.50;59.80;;;;;;5113987;27;20496;-87
2022/11/22 02:42:10;;;;;;;10.33;6.23;;;10.50;59.70;;;;;;5082807;27;20548;-87
2022/11/22 02:44:40;;;;;;;9.30;5.67;;;10.40;59.80;;;;;;5106156;27;20441;-87
2022/11/22 02:47:07;;;;;;;11.37;6.67;;;10.30;60.00;;;;;;5098467;27;20479;-88
2022/11/22 02:49:34;;;;;;;9.90;5.43;;;10.40;59.90;;;;;;5101239;27;20445;-88
2022/11/22 02:52:01;;;;;;;10.50;6.50;;;10.40;59.80;;;;;;5083340;27;20549;-88
2022/11/22 02:54:28;;;;;;;10.77;5.90;;;10.60;59.90;;;;;;5086435;27;20477;-87
2022/11/22 02:56:55;;;;;;;13.30;6.30;;;10.60;59.60;;;;;;5116981;27;21485;-87
2022/11/22 02:59:22;;;;;;;8.53;6.53;;;10.60;59.50;;;;;;5097590;27;20437;-87
2022/11/22 03:01:51;;;;;;;7.77;5.17;;;10.60;59.20;;;;;;5083178;27;20592;-87
2022/11/22 03:04:26;;;;;;;12.60;6.83;;;10.50;59.30;;;;;;5098810;27;20486;-87
2022/11/22 03:06:55;;;;;;;14.57;6.33;;;10.10;59.90;;;;;;5096955;27;20477;-87
2022/11/22 03:09:23;;;;;;;11.13;6.60;;;10.10;60.50;;;;;;5090147;27;20450;-86
2022/11/22 03:11:50;;;;;;;7.40;5.57;;;10.30;60.40;;;;;;5117091;27;20474;-89
2022/11/22 03:14:17;;;;;;;8.10;5.77;;;10.40;59.80;;;;;;5118962;27;20509;-86
2022/11/22 03:16:46;;;;;;;12.60;7.40;;;10.60;59.90;;;;;;5118529;27;20830;-87
2022/11/22 03:19:15;;;;;;;13.67;7.27;;;10.60;59.90;;;;;;5086339;27;20457;-88
2022/11/22 03:21:42;;;;;;;10.43;7.73;;;10.60;60.00;;;;;;5107525;27;20450;-88
2022/11/22 03:24:10;;;;;;;21.30;14.40;;;10.60;59.80;;;;;;5099350;27;20531;-87
2022/11/22 03:26:38;;;;;;;14.83;10.30;;;10.70;59.80;;;;;;5083338;27;20561;-88
2022/11/22 03:29:05;;;;;;;13.30;7.70;;;10.80;59.60;;;;;;5068609;27;20965;-88
2022/11/22 03:31:32;;;;;;;9.23;7.20;;;10.80;59.50;;;;;;5107401;27;20455;-88
2022/11/22 03:33:59;;;;;;;7.33;5.80;;;10.60;59.70;;;;;;5086490;27;20545;-89
2022/11/22 03:36:28;;;;;;;8.03;6.40;;;10.40;59.70;;;;;;5100337;27;20534;-87
2022/11/22 03:38:55;;;;;;;12.03;8.10;;;10.40;59.90;;;;;;5097782;27;20451;-87
2022/11/22 03:41:22;;;;;;;13.17;8.17;;;10.30;60.10;;;;;;5085182;27;20931;-87
2022/11/22 03:43:48;;;;;;;10.00;7.37;;;10.40;60.10;;;;;;5072301;27;20525;-87
2022/11/22 03:46:18;;;;;;;15.00;8.90;;;10.40;60.40;;;;;;5097431;27;20569;-87
2022/11/22 03:48:45;;;;;;;11.30;7.83;;;10.40;60.60;;;;;;5095946;27;20528;-88
2022/11/22 03:51:13;;;;;;;12.63;7.67;;;10.50;60.20;;;;;;5084166;27;20566;-87
2022/11/22 03:53:41;;;;;;;10.87;7.33;;;10.60;59.90;;;;;;5073618;27;20516;-90
2022/11/22 03:56:08;;;;;;;9.03;6.40;;;10.60;59.80;;;;;;5096695;27;20438;-87
2022/11/22 03:58:35;;;;;;;9.87;6.90;;;10.50;60.10;;;;;;5074600;27;20467;-87
2022/11/22 04:01:02;;;;;;;12.53;7.40;;;10.60;60.40;;;;;;5115809;27;20495;-87
2022/11/22 04:03:30;;;;;;;12.30;7.80;;;10.60;60.20;;;;;;5080542;27;20503;-90
2022/11/22 04:05:57;;;;;;;13.60;7.60;;;10.70;59.70;;;;;;5120430;27;20473;-87
2022/11/22 04:08:24;;;;;;;9.23;6.53;;;10.70;59.40;;;;;;5086575;27;20552;-89
2022/11/22 04:10:53;;;;;;;13.23;6.90;;;10.80;59.30;;;;;;5081422;27;20462;-87
2022/11/22 04:13:20;;;;;;;8.13;6.83;;;10.80;59.10;;;;;;5097098;27;20460;-87
2022/11/22 04:15:46;;;;;;;8.00;5.90;;;10.70;58.90;;;;;;5098881;27;20455;-87
2022/11/22 04:18:14;;;;;;;8.60;6.40;;;10.70;59.00;;;;;;5099097;27;20467;-88
2022/11/22 04:23:26;;;;;;;7.57;6.10;;;10.70;59.00;;;;;;5091101;27;20490;-88
2022/11/22 04:25:54;;;;;;;8.40;5.67;;;10.60;59.00;;;;;;5117397;27;20959;-88
2022/11/22 04:28:23;;;;;;;11.23;5.53;;;10.50;59.90;;;;;;5098027;27;20462;-88
2022/11/22 04:33:36;;;;;;;6.97;5.60;;;10.60;59.90;;;;;;5101194;27;20441;-87
2022/11/22 04:36:03;;;;;;;6.97;5.67;;;10.70;59.60;;;;;;5107672;27;21060;-88
2022/11/22 04:38:30;;;;;;;12.07;5.73;;;10.70;59.40;;;;;;5083262;27;20465;-87
2022/11/22 04:40:58;;;;;;;13.00;8.90;;;10.70;59.40;;;;;;5117420;27;20454;-85
2022/11/22 04:46:12;;;;;;;10.17;6.40;;;10.70;58.90;;;;;;5113311;27;20446;-88
2022/11/22 04:48:39;;;;;;;8.53;6.13;;;10.70;59.00;;;;;;5056414;27;20459;-87
2022/11/22 04:53:52;;;;;;;26.70;10.80;;;10.60;59.70;;;;;;5080958;27;20438;-87
2022/11/22 04:56:20;;;;;;;46.43;25.40;;;10.40;60.40;;;;;;5088019;27;20474;-86
2022/11/22 04:58:50;;;;;;;33.40;18.97;;;10.50;60.20;;;;;;5114766;27;20785;-87
2022/11/22 05:01:17;;;;;;;20.07;13.50;;;10.60;60.00;;;;;;5093949;27;20450;-87
2022/11/22 05:03:44;;;;;;;17.13;12.40;;;10.70;59.80;;;;;;5112170;27;20535;-87
2022/11/22 05:06:13;;;;;;;12.47;8.93;;;10.70;59.70;;;;;;5077773;27;20857;-87
2022/11/22 05:08:40;;;;;;;15.77;9.20;;;10.80;59.70;;;;;;5080459;27;20781;-85
2022/11/22 05:11:07;;;;;;;15.77;9.73;;;10.60;59.90;;;;;;5082860;27;20443;-87
2022/11/22 05:13:38;;;;;;;13.90;8.70;;;10.60;60.20;;;;;;5087128;27;20508;-86
2022/11/22 05:16:07;;;;;;;13.77;10.13;;;10.60;60.10;;;;;;5095666;27;20454;-89
2022/11/22 05:18:34;;;;;;;17.97;9.20;;;10.70;60.10;;;;;;5078607;27;20506;-87
2022/11/22 05:21:05;;;;;;;11.73;8.23;;;10.70;59.90;;;;;;5061990;27;20461;-87
2022/11/22 05:26:17;;;;;;;8.80;7.33;;;10.50;60.50;;;;;;5096051;27;20431;-86
2022/11/22 05:28:45;;;;;;;13.43;8.53;;;10.30;60.50;;;;;;5114421;27;20465;-87
2022/11/22 05:31:17;;;;;;;14.10;7.00;;;10.40;60.30;;;;;;5083225;27;20531;-86
2022/11/22 05:33:45;;;;;;;10.57;8.60;;;10.60;60.20;;;;;;5074363;27;20453;-87
2022/11/22 05:36:13;;;;;;;14.97;7.57;;;10.70;59.90;;;;;;5114737;27;20439;-85
2022/11/22 05:38:40;;;;;;;12.97;7.97;;;10.60;59.90;;;;;;5100875;27;20469;-87
2022/11/22 05:41:09;;;;;;;14.40;11.00;;;10.60;60.20;;;;;;5073725;27;20587;-87
2022/11/22 05:43:37;;;;;;;11.63;9.50;;;10.60;59.90;;;;;;5080237;27;20461;-86
2022/11/22 05:46:10;;;;;;;14.80;9.77;;;10.70;59.60;;;;;;5094942;27;20450;-88
2022/11/22 05:48:39;;;;;;;19.13;12.47;;;10.70;60.00;;;;;;5098144;27;20889;-86
2022/11/22 05:51:06;;;;;;;27.40;15.50;;;10.70;59.10;;;;;;5081088;27;20537;-86
2022/11/22 05:53:34;;;;;;;28.83;17.40;;;10.70;59.10;;;;;;5096325;27;20462;-87
2022/11/22 05:56:04;;;;;;;29.50;17.40;;;10.70;59.10;;;;;;5094089;27;20450;-89
2022/11/22 05:58:32;;;;;;;27.10;14.80;;;10.70;59.00;;;;;;5084574;27;20477;-86
2022/11/22 06:01:03;;;;;;;20.80;14.03;;;10.60;58.80;;;;;;5071444;28;20485;-87
2022/11/22 06:03:32;;;;;;;21.00;13.57;;;10.50;58.70;;;;;;5081520;28;20455;-87
2022/11/22 06:05:59;;;;;;;23.80;14.73;;;10.40;59.10;;;;;;5088602;28;20483;-85
2022/11/22 06:08:28;;;;;;;24.13;14.43;;;10.40;59.20;;;;;;5087063;28;21014;-86
2022/11/22 06:10:55;;;;;;;30.17;16.47;;;10.40;59.20;;;;;;5094671;28;20474;-86
2022/11/22 06:13:23;;;;;;;28.30;14.57;;;10.40;59.00;;;;;;5094888;27;20442;-88
2022/11/22 06:15:50;;;;;;;30.53;15.23;;;10.40;59.10;;;;;;5070152;27;20454;-89
2022/11/22 06:18:17;;;;;;;27.30;15.60;;;10.30;59.50;;;;;;5096030;27;20560;-87
2022/11/22 06:20:45;;;;;;;24.10;14.83;;;10.30;59.60;;;;;;5094155;27;20965;-87
2022/11/22 06:23:12;;;;;;;20.23;12.83;;;10.40;59.50;;;;;;5096161;27;20442;-89
2022/11/22 06:25:39;;;;;;;21.73;13.43;;;10.40;59.80;;;;;;5102655;27;21106;-89
2022/11/22 06:28:06;;;;;;;21.30;15.17;;;10.50;59.00;;;;;;5095089;27;20513;-88
2022/11/22 06:30:33;;;;;;;23.13;15.10;;;10.50;58.70;;;;;;5112464;27;20459;-88
2022/11/22 06:33:00;;;;;;;21.73;13.87;;;10.50;58.50;;;;;;5090806;27;20960;-89
2022/11/22 06:35:27;;;;;;;16.87;11.40;;;10.40;58.20;;;;;;5089857;27;20529;-88
2022/11/22 06:37:55;;;;;;;25.30;10.90;;;10.20;58.80;;;;;;5100660;27;20473;-87
2022/11/22 06:40:22;;;;;;;17.17;11.60;;;10.00;58.90;;;;;;5118421;27;21951;-88
2022/11/22 06:42:51;;;;;;;16.53;10.53;;;10.00;59.10;;;;;;5117234;27;20474;-87
2022/11/22 06:45:18;;;;;;;14.60;8.53;;;10.00;59.00;;;;;;5071254;27;20474;-88
2022/11/22 06:47:45;;;;;;;16.80;9.63;;;10.00;59.20;;;;;;5116691;27;20477;-88
2022/11/22 06:50:12;;;;;;;18.33;11.60;;;10.00;59.10;;;;;;5096942;27;20469;-88
2022/11/22 06:52:40;;;;;;;20.07;11.97;;;10.00;59.10;;;;;;5090203;27;20496;-88
2022/11/22 06:55:08;;;;;;;19.90;13.57;;;10.00;59.00;;;;;;5115192;27;20451;-88
2022/11/22 06:57:35;;;;;;;19.73;11.37;;;10.10;59.60;;;;;;5081095;27;20489;-88
2022/11/22 07:00:03;;;;;;;18.13;12.30;;;10.10;58.70;;;;;;5099164;27;20450;-88
2022/11/22 07:02:30;;;;;;;24.23;13.30;;;10.10;58.50;;;;;;5115494;27;20449;-88
2022/11/22 07:04:57;;;;;;;17.70;10.90;;;9.80;59.60;;;;;;5095556;27;20451;-88
2022/11/22 07:07:24;;;;;;;16.20;10.10;;;9.30;60.20;;;;;;5083590;27;20480;-88
2022/11/22 07:09:51;;;;;;;16.80;11.70;;;8.90;62.20;;;;;;5107252;27;20450;-86
2022/11/22 07:12:19;;;;;;;19.23;13.30;;;9.10;62.20;;;;;;5089740;27;20448;-87
2022/11/22 07:14:46;;;;;;;15.37;11.70;;;9.20;61.90;;;;;;5079997;27;20545;-88
2022/11/22 07:17:13;;;;;;;18.03;12.80;;;9.40;61.40;;;;;;5081330;27;20564;-87
2022/11/22 07:19:40;;;;;;;19.70;11.77;;;9.40;61.00;;;;;;5099807;27;20825;-89
2022/11/22 07:22:08;;;;;;;21.30;13.57;;;9.50;60.90;;;;;;5076727;27;20588;-89
2022/11/22 07:24:35;;;;;;;21.47;12.23;;;9.60;60.90;;;;;;5098083;27;20537;-88
2022/11/22 07:27:02;;;;;;;21.30;11.90;;;9.60;60.90;;;;;;5088807;27;22447;-88
2022/11/22 07:29:30;;;;;;;19.53;11.87;;;9.70;60.70;;;;;;5099682;27;20878;-87
2022/11/22 07:31:57;;;;;;;19.83;11.97;;;9.70;61.20;;;;;;5072807;27;20453;-87
2022/11/22 07:34:24;;;;;;;24.53;13.50;;;9.60;61.30;;;;;;5080502;27;20449;-88
2022/11/22 07:36:51;;;;;;;20.70;10.67;;;9.40;62.80;;;;;;5080546;27;20544;-85
2022/11/22 07:39:18;;;;;;;17.17;12.23;;;9.50;62.60;;;;;;5103339;27;20450;-88
2022/11/22 07:41:45;;;;;;;20.37;13.43;;;9.50;62.60;;;;;;5097614;27;20442;-89
2022/11/22 07:44:12;;;;;;;23.93;12.70;;;9.40;62.70;;;;;;5080160;27;20454;-88
2022/11/22 07:46:40;;;;;;;25.40;12.83;;;9.10;63.80;;;;;;5080309;27;20456;-88
2022/11/22 07:49:09;;;;;;;20.37;12.97;;;9.10;63.70;;;;;;5080101;27;20555;-88
2022/11/22 07:51:36;;;;;;;24.20;14.30;;;9.30;63.30;;;;;;5066159;27;20900;-90
2022/11/22 07:54:03;;;;;;;28.63;15.60;;;9.40;63.00;;;;;;5115726;27;20463;-88
2022/11/22 07:56:30;;;;;;;34.27;16.13;;;9.50;62.90;;;;;;5081814;27;20561;-87
2022/11/22 07:58:57;;;;;;;57.00;22.90;;;9.60;62.80;;;;;;5087669;28;20469;-87
2022/11/22 08:01:24;;;;;;;74.27;27.97;;;9.70;62.40;;;;;;5094374;27;21308;-87
2022/11/22 08:03:52;;;;;;;28.90;18.40;;;9.80;62.00;;;;;;5087254;27;20482;-87
2022/11/22 08:06:19;;;;;;;38.60;23.00;;;9.80;61.80;;;;;;5095876;27;20455;-87
2022/11/22 08:08:46;;;;;;;31.43;19.47;;;9.80;61.50;;;;;;5071052;27;20472;-89
2022/11/22 08:11:13;;;;;;;27.47;18.77;;;9.90;61.80;;;;;;5083164;27;20974;-87
2022/11/22 08:13:41;;;;;;;23.97;17.20;;;10.00;60.60;;;;;;5078388;27;20446;-87
2022/11/22 08:16:10;;;;;;;34.33;17.87;;;10.10;60.60;;;;;;5114037;27;20438;-88
2022/11/22 08:18:38;;;;;;;30.50;18.40;;;10.00;60.60;;;;;;5083865;27;20579;-88
2022/11/22 08:21:08;;;;;;;27.27;16.47;;;10.00;61.20;;;;;;5080084;27;20449;-88
2022/11/22 08:23:36;;;;;;;26.63;15.03;;;10.10;61.00;;;;;;5067969;27;20451;-89
2022/11/22 08:26:03;;;;;;;21.20;13.40;;;10.10;61.00;;;;;;5073439;27;20459;-89
2022/11/22 08:28:31;;;;;;;19.83;10.80;;;10.20;61.00;;;;;;5071204;27;20458;-88
2022/11/22 08:31:03;;;;;;;24.83;12.73;;;10.20;60.80;;;;;;5088349;27;20478;-89
2022/11/22 08:33:30;;;;;;;24.13;15.23;;;10.40;60.40;;;;;;5116039;27;20444;-88
2022/11/22 08:35:57;;;;;;;21.80;13.70;;;10.30;60.60;;;;;;5085727;27;20447;-87
2022/11/22 08:38:26;;;;;;;24.70;15.27;;;10.10;61.00;;;;;;5071481;27;20568;-88
2022/11/22 08:40:53;;;;;;;23.07;14.87;;;9.90;62.70;;;;;;5081220;27;20871;-87
2022/11/22 08:43:21;;;;;;;21.63;13.70;;;10.00;62.20;;;;;;5113992;27;20458;-90
2022/11/22 08:45:49;;;;;;;24.83;16.37;;;10.00;62.10;;;;;;5064067;27;20449;-87
2022/11/22 08:48:16;;;;;;;21.27;15.40;;;10.10;62.00;;;;;;5070447;27;20516;-88
2022/11/22 08:50:50;;;;;;;26.60;15.20;;;10.30;61.60;;;;;;5087704;27;21022;-88
2022/11/22 08:53:17;;;;;;;27.60;16.13;;;10.10;61.70;;;;;;5086104;27;20464;-87
2022/11/22 08:55:45;;;;;;;26.80;17.17;;;9.80;63.60;;;;;;5087301;27;20551;-88
2022/11/22 08:58:12;;;;;;;29.63;17.37;;;10.00;62.80;;;;;;5087030;27;20537;-88
2022/11/22 09:00:41;;;;;;;27.57;17.30;;;10.20;62.30;;;;;;5114423;27;20531;-88
2022/11/22 09:03:08;;;;;;;26.03;16.03;;;10.10;62.00;;;;;;5070395;27;20580;-88
2022/11/22 09:05:35;;;;;;;27.17;17.53;;;10.20;61.70;;;;;;5097035;27;20915;-87
2022/11/22 09:08:02;;;;;;;24.57;16.00;;;10.30;61.50;;;;;;5070167;27;20523;-88
2022/11/22 09:10:29;;;;;;;25.53;16.50;;;10.20;61.50;;;;;;5097459;28;20438;-87
2022/11/22 09:12:58;;;;;;;30.77;17.70;;;10.00;62.20;;;;;;5096735;27;20449;-88
2022/11/22 09:15:25;;;;;;;28.20;16.77;;;10.00;62.90;;;;;;5094527;27;20952;-87
2022/11/22 09:17:52;;;;;;;40.70;20.87;;;10.10;62.70;;;;;;5064396;27;20470;-89
2022/11/22 09:20:19;;;;;;;27.77;17.83;;;10.40;62.20;;;;;;5076526;27;20692;-88
2022/11/22 09:22:46;;;;;;;26.70;15.90;;;10.30;61.90;;;;;;5077385;27;20540;-88
2022/11/22 09:25:13;;;;;;;28.03;16.50;;;10.40;61.90;;;;;;5085307;27;21040;-87
2022/11/22 09:27:40;;;;;;;33.80;16.53;;;10.50;61.90;;;;;;5070094;27;21023;-88
2022/11/22 09:30:10;;;;;;;25.27;16.17;;;10.40;61.70;;;;;;5069408;27;20442;-88
2022/11/22 09:32:37;;;;;;;32.37;18.73;;;10.50;62.30;;;;;;5097224;27;20451;-88
2022/11/22 09:35:04;;;;;;;27.10;17.80;;;10.60;61.90;;;;;;5095506;27;20866;-87
2022/11/22 09:37:32;;;;;;;25.77;15.93;;;10.70;62.10;;;;;;5083212;27;20505;-88
2022/11/22 09:39:58;;;;;;;26.40;17.50;;;10.70;62.00;;;;;;5077312;28;20439;-88
2022/11/22 09:42:59;;;;;;;30.20;18.00;;;10.80;62.00;;;;;;5104771;27;20537;-88
2022/11/22 09:45:54;;;;;;;34.37;19.93;;;10.90;62.40;;;;;;5095563;27;20450;-89
2022/11/22 09:48:38;;;;;;;28.30;17.57;;;10.90;62.00;;;;;;5081366;27;20531;-86
2022/11/22 09:51:09;;;;;;;33.60;21.50;;;11.00;62.00;;;;;;5105156;27;20965;-88
2022/11/22 09:53:42;;;;;;;28.30;17.90;;;11.20;61.70;;;;;;5079091;27;20441;-88
2022/11/22 09:56:12;;;;;;;31.87;18.00;;;11.30;61.60;;;;;;5085673;27;20529;-88
2022/11/22 09:58:45;;;;;;;25.70;16.50;;;11.40;61.50;;;;;;5097080;27;20541;-88
2022/11/22 10:01:21;;;;;;;28.83;19.03;;;11.50;61.20;;;;;;5094351;27;20474;-88
2022/11/22 10:03:54;;;;;;;22.57;16.60;;;11.50;61.40;;;;;;5077942;27;20474;-88
2022/11/22 10:06:25;;;;;;;16.43;9.17;;;11.60;61.30;;;;;;5106917;27;20454;-88
2022/11/22 10:09:04;;;;;;;12.63;6.20;;;11.70;60.80;;;;;;5097716;27;20478;-90
2022/11/22 10:11:38;;;;;;;6.10;4.30;;;11.70;60.90;;;;;;5083050;27;20455;-86
2022/11/22 10:14:19;;;;;;;9.23;3.83;;;11.70;60.60;;;;;;5089125;27;20537;-87
2022/11/22 10:16:53;;;;;;;6.77;2.83;;;11.80;60.40;;;;;;5087063;27;20463;-88
2022/11/22 10:19:26;;;;;;;9.03;4.10;;;11.80;60.20;;;;;;5081363;27;20510;-88
2022/11/22 10:21:53;;;;;;;10.63;3.00;;;11.70;58.50;;;;;;5090431;27;21078;-89
2022/11/22 10:24:20;;;;;;;12.73;7.50;;;11.70;59.50;;;;;;5089598;27;20566;-87
2022/11/22 10:26:47;;;;;;;10.63;3.40;;;11.70;59.50;;;;;;5089281;27;20608;-88
2022/11/22 10:29:25;;;;;;;7.00;2.13;;;11.70;59.50;;;;;;5116174;27;20455;-88
2022/11/22 10:32:01;;;;;;;8.53;3.20;;;11.60;58.60;;;;;;5090362;27;20823;-88
2022/11/22 10:34:48;;;;;;;10.67;4.70;;;11.80;58.30;;;;;;5080682;27;20808;-89
2022/11/22 10:37:24;;;;;;;11.93;3.87;;;11.80;57.90;;;;;;5099473;27;20461;-88
2022/11/22 10:40:02;;;;;;;33.17;12.60;;;11.70;56.20;;;;;;5080372;27;20446;-88
2022/11/22 10:42:54;;;;;;;5.77;3.10;;;11.80;57.60;;;;;;5092478;27;20796;-87
2022/11/22 10:45:27;;;;;;;7.80;2.80;;;11.90;57.10;;;;;;5027101;27;20530;-88
2022/11/22 10:48:08;;;;;;;2.80;2.50;;;11.80;56.40;;;;;;5083228;27;21359;-88
2022/11/22 10:50:47;;;;;;;11.30;2.50;;;11.80;56.00;;;;;;5084893;27;20439;-87
2022/11/22 10:53:23;;;;;;;9.33;3.77;;;11.70;58.00;;;;;;5087886;27;20533;-88
2022/11/22 10:55:57;;;;;;;3.30;2.50;;;11.50;57.00;;;;;;5084397;27;21490;-87
2022/11/22 10:58:35;;;;;;;4.80;2.50;;;11.50;57.80;;;;;;5116043;27;20464;-86
2022/11/22 11:01:10;;;;;;;9.87;3.37;;;11.60;57.50;;;;;;5095552;27;20447;-87
2022/11/22 11:03:43;;;;;;;4.60;2.60;;;11.70;56.70;;;;;;5117401;27;21029;-89
2022/11/22 11:06:16;;;;;;;9.30;3.93;;;11.50;56.80;;;;;;5094498;27;20450;-87
2022/11/22 11:08:46;;;;;;;6.50;3.20;;;11.60;58.10;;;;;;5091605;27;20480;-89
2022/11/22 11:11:14;;;;;;;15.03;3.60;;;11.70;57.40;;;;;;5098696;27;20517;-88
2022/11/22 11:13:45;;;;;;;9.50;2.30;;;11.60;56.30;;;;;;5100278;27;20449;-88
2022/11/22 11:16:18;;;;;;;15.27;6.97;;;11.40;57.20;;;;;;5067395;27;20430;-87
2022/11/22 11:18:51;;;;;;;6.67;5.37;;;11.50;57.70;;;;;;5072111;27;20499;-88
2022/11/22 11:21:19;;;;;;;6.40;3.53;;;11.70;56.80;;;;;;5081474;27;20454;-88
2022/11/22 11:23:47;;;;;;;5.47;4.50;;;11.90;55.30;;;;;;5086555;27;21221;-86
2022/11/22 11:26:23;;;;;;;3.53;2.50;;;11.90;55.90;;;;;;5100383;27;20962;-87
2022/11/22 11:28:50;;;;;;;6.43;2.63;;;11.80;56.20;;;;;;5096879;27;20480;-88
2022/11/22 11:31:20;;;;;;;4.70;1.63;;;12.00;56.50;;;;;;5081789;27;20541;-87
2022/11/22 11:33:48;;;;;;;11.47;1.50;;;12.20;56.10;;;;;;5079047;27;20471;-87
2022/11/22 11:36:18;;;;;;;6.90;3.27;;;12.30;56.90;;;;;;5073431;27;20445;-87
2022/11/22 11:38:57;;;;;;;7.40;1.80;;;12.20;56.10;;;;;;5084410;27;20882;-88
2022/11/22 11:41:28;;;;;;;3.03;2.23;;;12.40;55.90;;;;;;5093661;27;20448;-87
2022/11/22 11:43:56;;;;;;;10.93;1.80;;;12.30;55.60;;;;;;5096023;27;20454;-88
2022/11/22 11:46:25;;;;;;;8.97;5.47;;;12.10;54.80;;;;;;5115422;27;20802;-87
2022/11/22 11:48:54;;;;;;;4.73;2.00;;;12.10;55.70;;;;;;5066921;27;20465;-88
2022/11/22 11:51:25;;;;;;;9.30;3.20;;;12.10;54.60;;;;;;5085970;27;20467;-88
2022/11/22 11:54:03;;;;;;;4.23;1.33;;;12.20;55.20;;;;;;5097343;27;20436;-87
2022/11/22 11:56:40;;;;;;;6.10;2.83;;;12.00;56.10;;;;;;5105191;27;20436;-88
2022/11/22 11:59:12;;;;;;;6.27;4.17;;;12.00;56.00;;;;;;5104141;27;20801;-87
2022/11/22 12:01:55;;;;;;;3.87;2.00;;;12.20;55.10;;;;;;5102566;27;20465;-86
2022/11/22 12:04:27;;;;;;;7.17;2.03;;;11.90;56.30;;;;;;5077880;27;20449;-88
2022/11/22 12:07:04;;;;;;;5.17;1.80;;;11.60;56.50;;;;;;5090999;27;20557;-86
2022/11/22 12:09:36;;;;;;;5.67;1.37;;;11.70;56.70;;;;;;5102590;27;20467;-86
2022/11/22 12:12:13;;;;;;;6.93;2.30;;;11.80;56.10;;;;;;5069446;27;20450;-87
2022/11/22 12:14:44;;;;;;;8.30;2.33;;;12.00;56.00;;;;;;5085274;27;20458;-86
2022/11/22 12:17:18;;;;;;;7.47;3.23;;;12.00;55.10;;;;;;5079163;27;20512;-86
2022/11/22 12:19:52;;;;;;;7.13;2.70;;;12.10;55.90;;;;;;5110844;27;20477;-87
2022/11/22 12:22:26;;;;;;;3.87;2.50;;;12.10;55.80;;;;;;5085648;27;20435;-87
2022/11/22 12:24:57;;;;;;;9.30;3.37;;;12.10;55.50;;;;;;5115165;27;21300;-86
2022/11/22 12:27:25;;;;;;;6.50;2.70;;;12.00;55.10;;;;;;5090895;27;20471;-87
2022/11/22 12:29:53;;;;;;;8.17;4.30;;;12.10;55.40;;;;;;5102804;27;20976;-87
2022/11/22 12:32:23;;;;;;;6.63;3.07;;;12.20;55.20;;;;;;5086156;27;20930;-87
2022/11/22 12:34:56;;;;;;;3.53;1.90;;;12.30;54.80;;;;;;5114206;27;22104;-87
2022/11/22 12:37:28;;;;;;;5.97;2.40;;;12.20;53.90;;;;;;5095925;27;20977;-87
2022/11/22 12:40:01;;;;;;;3.13;1.80;;;12.40;55.10;;;;;;5113696;27;20477;-87
2022/11/22 12:42:32;;;;;;;10.67;2.30;;;12.50;54.20;;;;;;5116032;27;20499;-87
2022/11/22 12:45:04;;;;;;;12.37;4.80;;;12.10;54.70;;;;;;5111159;27;20903;-89
2022/11/22 12:47:33;;;;;;;12.33;2.00;;;12.30;54.80;;;;;;5110091;27;20829;-86
2022/11/22 12:50:16;;;;;;;4.20;1.73;;;12.60;55.40;;;;;;5109430;27;20590;-88
2022/11/22 12:52:47;;;;;;;7.13;3.13;;;12.40;53.70;;;;;;5111820;27;20475;-87
2022/11/22 12:55:18;;;;;;;5.67;2.40;;;12.30;54.10;;;;;;5093522;27;20550;-87
2022/11/22 12:57:51;;;;;;;3.40;1.53;;;12.30;54.80;;;;;;5092829;27;20496;-88
2022/11/22 13:00:21;;;;;;;4.17;1.70;;;12.00;54.70;;;;;;5109733;27;20443;-89
2022/11/22 13:03:00;;;;;;;7.33;1.70;;;12.10;55.30;;;;;;5101967;27;20468;-87